sensor_id;sensor_type;location;lat;lon;timestamp;P1;durP1;ratioP1;P2;durP2;ratioP2
4692;SDS011;11710;48.024;16.296;2022-08-01T00:02:05;7.03;;;6.43;;
4692;SDS011;11710;48.024;16.296;2022-08-01T00:04:32;6.40;;;5.80;;
4692;SDS011;11710;48.024;16.296;2022-08-01T00:06:59;6.60;;;6.00;;
4692;SDS011;11710;48.024;16.296;2022-08-01T00:09:26;7.50;;;6.77;;
4692;SDS011;11710;48.024;16.296;2022-08-01T00:11:54;7.10;;;6.00;;
4692;SDS011;11710;48.024;16.296;2022-08-01T00:14:21;7.67;;;6.17;;
4692;SDS011;11710;48.024;16.296;2022-08-01T00:16:48;6.47;;;5.97;;
4692;SDS011;11710;48.024;16.296;2022-08-01T00:19:15;6.50;;;5.90;;
4692;SDS011;11710;48.024;16.296;2022-08-01T00:21:42;7.00;;;6.40;;
4692;SDS011;11710;48.024;16.296;2022-08-01T00:24:08;7.23;;;6.47;;
4692;SDS011;11710;48.024;16.296;2022-08-01T00:26:35;6.80;;;6.13;;
4692;SDS011;11710;48.024;16.296;2022-08-01T00:29:04;6.63;;;6.00;;
4692;SDS011;11710;48.024;16.296;2022-08-01T00:31:30;6.20;;;5.60;;
4692;SDS011;11710;48.024;16.296;2022-08-01T00:33:57;6.80;;;6.17;;
4692;SDS011;11710;48.024;16.296;2022-08-01T00:36:24;6.57;;;6.00;;
4692;SDS011;11710;48.024;16.296;2022-08-01T00:38:51;6.53;;;6.00;;
4692;SDS011;11710;48.024;16.296;2022-08-01T00:41:18;7.23;;;6.53;;
4692;SDS011;11710;48.024;16.296;2022-08-01T00:43:45;6.50;;;5.83;;
4692;SDS011;11710;48.024;16.296;2022-08-01T00:46:13;6.23;;;5.73;;
4692;SDS011;11710;48.024;16.296;2022-08-01T00:48:40;6.23;;;5.63;;
4692;SDS011;11710;48.024;16.296;2022-08-01T00:51:07;6.60;;;6.00;;
4692;SDS011;11710;48.024;16.296;2022-08-01T00:53:34;5.97;;;5.43;;
4692;SDS011;11710;48.024;16.296;2022-08-01T00:56:01;6.67;;;6.07;;
4692;SDS011;11710;48.024;16.296;2022-08-01T00:58:28;6.83;;;6.23;;
4692;SDS011;11710;48.024;16.296;2022-08-01T01:00:57;6.23;;;5.73;;
4692;SDS011;11710;48.024;16.296;2022-08-01T01:03:26;11.53;;;6.73;;
4692;SDS011;11710;48.024;16.296;2022-08-01T01:05:55;6.47;;;5.90;;
4692;SDS011;11710;48.024;16.296;2022-08-01T01:08:32;7.00;;;5.93;;
4692;SDS011;11710;48.024;16.296;2022-08-01T01:11:04;6.10;;;5.60;;
4692;SDS011;11710;48.024;16.296;2022-08-01T01:13:37;7.13;;;6.20;;
4692;SDS011;11710;48.024;16.296;2022-08-01T01:16:13;6.03;;;5.53;;
4692;SDS011;11710;48.024;16.296;2022-08-01T01:18:45;8.53;;;6.10;;
4692;SDS011;11710;48.024;16.296;2022-08-01T01:21:24;7.07;;;6.20;;
4692;SDS011;11710;48.024;16.296;2022-08-01T01:24:01;5.47;;;4.97;;
4692;SDS011;11710;48.024;16.296;2022-08-01T01:26:38;6.70;;;6.10;;
4692;SDS011;11710;48.024;16.296;2022-08-01T01:29:15;5.70;;;5.20;;
4692;SDS011;11710;48.024;16.296;2022-08-01T01:31:44;5.93;;;5.43;;
4692;SDS011;11710;48.024;16.296;2022-08-01T01:34:17;5.47;;;5.07;;
4692;SDS011;11710;48.024;16.296;2022-08-01T01:36:47;6.20;;;5.70;;
4692;SDS011;11710;48.024;16.296;2022-08-01T01:39:15;5.97;;;5.37;;
4692;SDS011;11710;48.024;16.296;2022-08-01T01:41:44;5.50;;;5.10;;
4692;SDS011;11710;48.024;16.296;2022-08-01T01:44:12;5.90;;;5.30;;
4692;SDS011;11710;48.024;16.296;2022-08-01T01:46:42;5.57;;;5.10;;
4692;SDS011;11710;48.024;16.296;2022-08-01T01:49:10;5.60;;;5.10;;
4692;SDS011;11710;48.024;16.296;2022-08-01T01:51:38;5.80;;;5.30;;
4692;SDS011;11710;48.024;16.296;2022-08-01T01:54:08;6.20;;;5.60;;
4692;SDS011;11710;48.024;16.296;2022-08-01T01:56:36;5.83;;;5.37;;
4692;SDS011;11710;48.024;16.296;2022-08-01T01:59:15;5.87;;;5.37;;
4692;SDS011;11710;48.024;16.296;2022-08-01T02:01:45;6.53;;;5.60;;
4692;SDS011;11710;48.024;16.296;2022-08-01T02:04:13;6.70;;;5.33;;
4692;SDS011;11710;48.024;16.296;2022-08-01T02:06:41;6.00;;;5.40;;
4692;SDS011;11710;48.024;16.296;2022-08-01T02:09:09;5.40;;;4.90;;
4692;SDS011;11710;48.024;16.296;2022-08-01T02:11:37;6.37;;;5.67;;
4692;SDS011;11710;48.024;16.296;2022-08-01T02:14:06;5.73;;;5.23;;
4692;SDS011;11710;48.024;16.296;2022-08-01T02:16:37;5.83;;;5.40;;
4692;SDS011;11710;48.024;16.296;2022-08-01T02:19:07;5.53;;;5.03;;
4692;SDS011;11710;48.024;16.296;2022-08-01T02:21:37;6.37;;;5.50;;
4692;SDS011;11710;48.024;16.296;2022-08-01T02:24:10;5.60;;;5.10;;
4692;SDS011;11710;48.024;16.296;2022-08-01T02:26:41;6.87;;;4.53;;
4692;SDS011;11710;48.024;16.296;2022-08-01T02:29:13;5.47;;;5.07;;
4692;SDS011;11710;48.024;16.296;2022-08-01T02:31:45;4.80;;;4.40;;
4692;SDS011;11710;48.024;16.296;2022-08-01T02:34:15;5.40;;;4.70;;
4692;SDS011;11710;48.024;16.296;2022-08-01T02:36:44;4.87;;;4.47;;
4692;SDS011;11710;48.024;16.296;2022-08-01T02:39:13;5.37;;;4.87;;
4692;SDS011;11710;48.024;16.296;2022-08-01T02:41:42;4.67;;;4.27;;
4692;SDS011;11710;48.024;16.296;2022-08-01T02:44:14;5.47;;;4.97;;
4692;SDS011;11710;48.024;16.296;2022-08-01T02:46:48;5.70;;;5.00;;
4692;SDS011;11710;48.024;16.296;2022-08-01T02:49:18;5.30;;;4.80;;
4692;SDS011;11710;48.024;16.296;2022-08-01T02:51:46;5.07;;;4.57;;
4692;SDS011;11710;48.024;16.296;2022-08-01T02:54:14;5.33;;;4.87;;
4692;SDS011;11710;48.024;16.296;2022-08-01T02:56:43;5.80;;;5.30;;
4692;SDS011;11710;48.024;16.296;2022-08-01T02:59:14;5.43;;;4.80;;
4692;SDS011;11710;48.024;16.296;2022-08-01T03:01:44;5.60;;;5.10;;
4692;SDS011;11710;48.024;16.296;2022-08-01T03:04:13;5.10;;;4.70;;
4692;SDS011;11710;48.024;16.296;2022-08-01T03:06:42;5.00;;;4.60;;
4692;SDS011;11710;48.024;16.296;2022-08-01T03:09:10;4.90;;;4.50;;
4692;SDS011;11710;48.024;16.296;2022-08-01T03:11:39;5.20;;;4.70;;
4692;SDS011;11710;48.024;16.296;2022-08-01T03:14:09;6.07;;;5.50;;
4692;SDS011;11710;48.024;16.296;2022-08-01T03:16:37;5.80;;;5.20;;
4692;SDS011;11710;48.024;16.296;2022-08-01T03:19:07;5.70;;;5.20;;
4692;SDS011;11710;48.024;16.296;2022-08-01T03:21:37;4.60;;;4.30;;
4692;SDS011;11710;48.024;16.296;2022-08-01T03:24:06;5.27;;;4.87;;
4692;SDS011;11710;48.024;16.296;2022-08-01T03:26:36;7.60;;;6.20;;
4692;SDS011;11710;48.024;16.296;2022-08-01T03:29:05;6.10;;;5.37;;
4692;SDS011;11710;48.024;16.296;2022-08-01T03:31:34;5.67;;;5.17;;
4692;SDS011;11710;48.024;16.296;2022-08-01T03:34:03;8.17;;;6.23;;
4692;SDS011;11710;48.024;16.296;2022-08-01T03:36:32;5.43;;;4.93;;
4692;SDS011;11710;48.024;16.296;2022-08-01T03:39:03;6.43;;;5.30;;
4692;SDS011;11710;48.024;16.296;2022-08-01T03:41:37;5.47;;;4.90;;
4692;SDS011;11710;48.024;16.296;2022-08-01T03:44:07;6.43;;;5.83;;
4692;SDS011;11710;48.024;16.296;2022-08-01T03:46:42;6.57;;;5.97;;
4692;SDS011;11710;48.024;16.296;2022-08-01T03:49:14;6.33;;;5.83;;
4692;SDS011;11710;48.024;16.296;2022-08-01T03:51:46;5.63;;;5.17;;
4692;SDS011;11710;48.024;16.296;2022-08-01T03:54:17;6.20;;;5.60;;
4692;SDS011;11710;48.024;16.296;2022-08-01T03:56:49;5.87;;;5.37;;
4692;SDS011;11710;48.024;16.296;2022-08-01T03:59:18;6.10;;;5.60;;
4692;SDS011;11710;48.024;16.296;2022-08-01T04:01:46;7.17;;;6.00;;
4692;SDS011;11710;48.024;16.296;2022-08-01T04:04:14;6.23;;;5.63;;
4692;SDS011;11710;48.024;16.296;2022-08-01T04:06:41;5.87;;;5.37;;
4692;SDS011;11710;48.024;16.296;2022-08-01T04:09:09;6.20;;;5.60;;
4692;SDS011;11710;48.024;16.296;2022-08-01T04:11:39;6.80;;;5.10;;
4692;SDS011;11710;48.024;16.296;2022-08-01T04:14:06;5.57;;;5.07;;
4692;SDS011;11710;48.024;16.296;2022-08-01T04:16:33;5.67;;;5.17;;
4692;SDS011;11710;48.024;16.296;2022-08-01T04:19:00;6.50;;;5.80;;
4692;SDS011;11710;48.024;16.296;2022-08-01T04:21:27;6.00;;;5.43;;
4692;SDS011;11710;48.024;16.296;2022-08-01T04:23:58;7.80;;;5.60;;
4692;SDS011;11710;48.024;16.296;2022-08-01T04:26:28;5.87;;;5.30;;
4692;SDS011;11710;48.024;16.296;2022-08-01T04:28:59;6.77;;;6.17;;
4692;SDS011;11710;48.024;16.296;2022-08-01T04:31:29;5.90;;;5.40;;
4692;SDS011;11710;48.024;16.296;2022-08-01T04:33:57;6.00;;;5.50;;
4692;SDS011;11710;48.024;16.296;2022-08-01T04:36:25;6.23;;;5.67;;
4692;SDS011;11710;48.024;16.296;2022-08-01T04:38:55;6.13;;;5.60;;
4692;SDS011;11710;48.024;16.296;2022-08-01T04:41:26;6.17;;;5.60;;
4692;SDS011;11710;48.024;16.296;2022-08-01T04:43:54;5.90;;;5.40;;
4692;SDS011;11710;48.024;16.296;2022-08-01T04:46:22;6.97;;;6.10;;
4692;SDS011;11710;48.024;16.296;2022-08-01T04:48:49;8.90;;;6.13;;
4692;SDS011;11710;48.024;16.296;2022-08-01T04:51:17;7.43;;;6.40;;
4692;SDS011;11710;48.024;16.296;2022-08-01T04:53:47;7.30;;;6.33;;
4692;SDS011;11710;48.024;16.296;2022-08-01T04:56:15;7.00;;;6.30;;
4692;SDS011;11710;48.024;16.296;2022-08-01T04:58:43;7.07;;;6.37;;
4692;SDS011;11710;48.024;16.296;2022-08-01T05:01:10;9.03;;;6.77;;
4692;SDS011;11710;48.024;16.296;2022-08-01T05:03:39;8.17;;;7.37;;
4692;SDS011;11710;48.024;16.296;2022-08-01T05:06:06;6.90;;;6.20;;
4692;SDS011;11710;48.024;16.296;2022-08-01T05:08:33;6.27;;;5.77;;
4692;SDS011;11710;48.024;16.296;2022-08-01T05:11:01;6.53;;;5.93;;
4692;SDS011;11710;48.024;16.296;2022-08-01T05:13:28;9.13;;;6.73;;
4692;SDS011;11710;48.024;16.296;2022-08-01T05:15:55;6.80;;;6.20;;
4692;SDS011;11710;48.024;16.296;2022-08-01T05:18:22;6.07;;;5.57;;
4692;SDS011;11710;48.024;16.296;2022-08-01T05:20:50;6.43;;;5.83;;
4692;SDS011;11710;48.024;16.296;2022-08-01T05:23:17;9.37;;;6.23;;
4692;SDS011;11710;48.024;16.296;2022-08-01T05:25:44;7.00;;;6.30;;
4692;SDS011;11710;48.024;16.296;2022-08-01T05:28:13;6.73;;;5.77;;
4692;SDS011;11710;48.024;16.296;2022-08-01T05:30:40;6.80;;;6.10;;
4692;SDS011;11710;48.024;16.296;2022-08-01T05:33:07;7.07;;;6.47;;
4692;SDS011;11710;48.024;16.296;2022-08-01T05:35:34;10.00;;;6.50;;
4692;SDS011;11710;48.024;16.296;2022-08-01T05:38:02;7.20;;;6.60;;
4692;SDS011;11710;48.024;16.296;2022-08-01T05:40:29;8.73;;;7.60;;
4692;SDS011;11710;48.024;16.296;2022-08-01T05:42:56;7.67;;;6.97;;
4692;SDS011;11710;48.024;16.296;2022-08-01T05:45:23;8.10;;;7.30;;
4692;SDS011;11710;48.024;16.296;2022-08-01T05:47:50;9.53;;;7.53;;
4692;SDS011;11710;48.024;16.296;2022-08-01T05:50:17;8.37;;;7.13;;
4692;SDS011;11710;48.024;16.296;2022-08-01T05:52:43;8.60;;;7.90;;
4692;SDS011;11710;48.024;16.296;2022-08-01T05:55:12;9.47;;;6.67;;
4692;SDS011;11710;48.024;16.296;2022-08-01T05:57:38;7.83;;;7.13;;
4692;SDS011;11710;48.024;16.296;2022-08-01T06:00:06;7.90;;;6.23;;
4692;SDS011;11710;48.024;16.296;2022-08-01T06:02:34;6.93;;;6.23;;
4692;SDS011;11710;48.024;16.296;2022-08-01T06:05:07;7.20;;;5.63;;
4692;SDS011;11710;48.024;16.296;2022-08-01T06:07:34;6.10;;;5.60;;
4692;SDS011;11710;48.024;16.296;2022-08-01T06:10:01;8.07;;;6.77;;
4692;SDS011;11710;48.024;16.296;2022-08-01T06:12:29;7.30;;;6.70;;
4692;SDS011;11710;48.024;16.296;2022-08-01T06:14:58;7.13;;;6.43;;
4692;SDS011;11710;48.024;16.296;2022-08-01T06:17:25;8.63;;;6.43;;
4692;SDS011;11710;48.024;16.296;2022-08-01T06:19:52;6.67;;;6.07;;
4692;SDS011;11710;48.024;16.296;2022-08-01T06:22:19;6.77;;;6.07;;
4692;SDS011;11710;48.024;16.296;2022-08-01T06:24:46;7.47;;;6.73;;
4692;SDS011;11710;48.024;16.296;2022-08-01T06:27:13;6.73;;;5.60;;
4692;SDS011;11710;48.024;16.296;2022-08-01T06:29:41;7.37;;;6.67;;
4692;SDS011;11710;48.024;16.296;2022-08-01T06:32:08;8.80;;;6.30;;
4692;SDS011;11710;48.024;16.296;2022-08-01T06:34:35;7.20;;;6.30;;
4692;SDS011;11710;48.024;16.296;2022-08-01T06:37:02;7.70;;;6.40;;
4692;SDS011;11710;48.024;16.296;2022-08-01T06:39:29;9.03;;;5.80;;
4692;SDS011;11710;48.024;16.296;2022-08-01T06:41:56;6.90;;;6.30;;
4692;SDS011;11710;48.024;16.296;2022-08-01T06:44:22;10.53;;;6.43;;
4692;SDS011;11710;48.024;16.296;2022-08-01T06:46:51;5.43;;;4.60;;
4692;SDS011;11710;48.024;16.296;2022-08-01T06:49:17;4.90;;;4.50;;
4692;SDS011;11710;48.024;16.296;2022-08-01T06:51:44;4.67;;;4.37;;
4692;SDS011;11710;48.024;16.296;2022-08-01T06:54:12;4.40;;;4.10;;
4692;SDS011;11710;48.024;16.296;2022-08-01T06:56:38;4.27;;;3.97;;
4692;SDS011;11710;48.024;16.296;2022-08-01T06:59:05;4.90;;;4.40;;
4692;SDS011;11710;48.024;16.296;2022-08-01T07:01:32;4.63;;;4.30;;
4692;SDS011;11710;48.024;16.296;2022-08-01T07:04:00;4.70;;;4.30;;
4692;SDS011;11710;48.024;16.296;2022-08-01T07:06:27;5.63;;;5.13;;
4692;SDS011;11710;48.024;16.296;2022-08-01T07:08:54;4.80;;;4.40;;
4692;SDS011;11710;48.024;16.296;2022-08-01T07:11:22;5.90;;;4.30;;
4692;SDS011;11710;48.024;16.296;2022-08-01T07:13:49;5.27;;;4.30;;
4692;SDS011;11710;48.024;16.296;2022-08-01T07:16:16;5.03;;;4.60;;
4692;SDS011;11710;48.024;16.296;2022-08-01T07:18:43;4.90;;;4.50;;
4692;SDS011;11710;48.024;16.296;2022-08-01T07:21:12;5.17;;;4.77;;
4692;SDS011;11710;48.024;16.296;2022-08-01T07:23:39;4.47;;;4.07;;
4692;SDS011;11710;48.024;16.296;2022-08-01T07:26:05;5.97;;;4.63;;
4692;SDS011;11710;48.024;16.296;2022-08-01T07:28:32;4.67;;;4.27;;
4692;SDS011;11710;48.024;16.296;2022-08-01T07:30:59;5.17;;;4.67;;
4692;SDS011;11710;48.024;16.296;2022-08-01T07:33:26;5.03;;;4.60;;
4692;SDS011;11710;48.024;16.296;2022-08-01T07:35:53;5.27;;;4.60;;
4692;SDS011;11710;48.024;16.296;2022-08-01T07:38:22;4.50;;;4.20;;
4692;SDS011;11710;48.024;16.296;2022-08-01T07:40:49;5.73;;;4.30;;
4692;SDS011;11710;48.024;16.296;2022-08-01T07:43:16;4.33;;;3.93;;
4692;SDS011;11710;48.024;16.296;2022-08-01T07:45:42;4.13;;;3.83;;
4692;SDS011;11710;48.024;16.296;2022-08-01T07:48:09;4.30;;;3.93;;
4692;SDS011;11710;48.024;16.296;2022-08-01T07:50:36;4.50;;;4.10;;
4692;SDS011;11710;48.024;16.296;2022-08-01T07:53:03;4.73;;;4.20;;
4692;SDS011;11710;48.024;16.296;2022-08-01T07:55:31;7.43;;;4.07;;
4692;SDS011;11710;48.024;16.296;2022-08-01T07:57:58;4.50;;;4.20;;
4692;SDS011;11710;48.024;16.296;2022-08-01T08:00:25;4.60;;;4.30;;
4692;SDS011;11710;48.024;16.296;2022-08-01T08:02:52;4.23;;;3.87;;
4692;SDS011;11710;48.024;16.296;2022-08-01T08:05:19;5.90;;;4.77;;
4692;SDS011;11710;48.024;16.296;2022-08-01T08:07:46;4.23;;;3.93;;
4692;SDS011;11710;48.024;16.296;2022-08-01T08:10:13;4.50;;;4.20;;
4692;SDS011;11710;48.024;16.296;2022-08-01T08:12:42;4.57;;;4.17;;
4692;SDS011;11710;48.024;16.296;2022-08-01T08:15:09;6.50;;;5.00;;
4692;SDS011;11710;48.024;16.296;2022-08-01T08:17:36;4.50;;;4.20;;
4692;SDS011;11710;48.024;16.296;2022-08-01T08:20:04;4.10;;;3.80;;
4692;SDS011;11710;48.024;16.296;2022-08-01T08:22:32;5.10;;;4.60;;
4692;SDS011;11710;48.024;16.296;2022-08-01T08:24:59;4.63;;;4.27;;
4692;SDS011;11710;48.024;16.296;2022-08-01T08:27:26;4.17;;;3.83;;
4692;SDS011;11710;48.024;16.296;2022-08-01T08:29:54;4.80;;;4.40;;
4692;SDS011;11710;48.024;16.296;2022-08-01T08:32:21;5.07;;;4.57;;
4692;SDS011;11710;48.024;16.296;2022-08-01T08:34:48;6.43;;;4.90;;
4692;SDS011;11710;48.024;16.296;2022-08-01T08:37:15;4.97;;;4.53;;
4692;SDS011;11710;48.024;16.296;2022-08-01T08:39:42;5.63;;;4.60;;
4692;SDS011;11710;48.024;16.296;2022-08-01T08:42:10;7.00;;;5.20;;
4692;SDS011;11710;48.024;16.296;2022-08-01T08:44:37;7.00;;;5.43;;
4692;SDS011;11710;48.024;16.296;2022-08-01T08:47:07;5.90;;;5.40;;
4692;SDS011;11710;48.024;16.296;2022-08-01T08:49:36;8.57;;;5.20;;
4692;SDS011;11710;48.024;16.296;2022-08-01T08:52:04;5.47;;;5.07;;
4692;SDS011;11710;48.024;16.296;2022-08-01T08:54:31;5.53;;;5.03;;
4692;SDS011;11710;48.024;16.296;2022-08-01T08:56:59;5.63;;;5.03;;
4692;SDS011;11710;48.024;16.296;2022-08-01T08:59:27;5.30;;;4.90;;
4692;SDS011;11710;48.024;16.296;2022-08-01T09:01:55;5.10;;;4.70;;
4692;SDS011;11710;48.024;16.296;2022-08-01T09:04:24;5.30;;;4.90;;
4692;SDS011;11710;48.024;16.296;2022-08-01T09:06:51;5.27;;;4.87;;
4692;SDS011;11710;48.024;16.296;2022-08-01T09:09:19;5.37;;;4.87;;
4692;SDS011;11710;48.024;16.296;2022-08-01T09:11:46;6.20;;;5.60;;
4692;SDS011;11710;48.024;16.296;2022-08-01T09:14:13;5.20;;;4.80;;
4692;SDS011;11710;48.024;16.296;2022-08-01T09:16:47;5.70;;;5.20;;
4692;SDS011;11710;48.024;16.296;2022-08-01T09:19:33;5.80;;;5.40;;
4692;SDS011;11710;48.024;16.296;2022-08-01T09:22:02;5.63;;;5.10;;
4692;SDS011;11710;48.024;16.296;2022-08-01T09:24:31;5.20;;;4.80;;
4692;SDS011;11710;48.024;16.296;2022-08-01T09:26:58;5.70;;;5.20;;
4692;SDS011;11710;48.024;16.296;2022-08-01T09:29:26;5.83;;;5.33;;
4692;SDS011;11710;48.024;16.296;2022-08-01T09:31:55;6.47;;;5.87;;
4692;SDS011;11710;48.024;16.296;2022-08-01T09:34:24;5.87;;;5.37;;
4692;SDS011;11710;48.024;16.296;2022-08-01T09:36:55;6.23;;;5.73;;
4692;SDS011;11710;48.024;16.296;2022-08-01T09:39:23;6.10;;;5.60;;
4692;SDS011;11710;48.024;16.296;2022-08-01T09:41:52;7.50;;;5.83;;
4692;SDS011;11710;48.024;16.296;2022-08-01T09:44:19;6.33;;;5.60;;
4692;SDS011;11710;48.024;16.296;2022-08-01T09:47:02;6.00;;;5.50;;
4692;SDS011;11710;48.024;16.296;2022-08-01T09:49:30;6.60;;;6.00;;
4692;SDS011;11710;48.024;16.296;2022-08-01T09:51:59;8.27;;;5.53;;
4692;SDS011;11710;48.024;16.296;2022-08-01T09:54:35;6.30;;;5.17;;
4692;SDS011;11710;48.024;16.296;2022-08-01T09:57:10;6.00;;;5.50;;
4692;SDS011;11710;48.024;16.296;2022-08-01T09:59:39;6.63;;;5.90;;
4692;SDS011;11710;48.024;16.296;2022-08-01T10:02:08;6.20;;;5.60;;
4692;SDS011;11710;48.024;16.296;2022-08-01T10:04:46;6.03;;;5.43;;
4692;SDS011;11710;48.024;16.296;2022-08-01T10:07:14;7.40;;;5.80;;
4692;SDS011;11710;48.024;16.296;2022-08-01T10:09:42;6.10;;;5.50;;
4692;SDS011;11710;48.024;16.296;2022-08-01T10:12:11;6.57;;;6.07;;
4692;SDS011;11710;48.024;16.296;2022-08-01T10:14:40;6.73;;;6.00;;
4692;SDS011;11710;48.024;16.296;2022-08-01T10:17:09;7.13;;;5.70;;
4692;SDS011;11710;48.024;16.296;2022-08-01T10:19:39;6.50;;;5.90;;
4692;SDS011;11710;48.024;16.296;2022-08-01T10:22:09;6.40;;;5.80;;
4692;SDS011;11710;48.024;16.296;2022-08-01T10:24:39;6.67;;;5.77;;
4692;SDS011;11710;48.024;16.296;2022-08-01T10:27:07;5.93;;;5.23;;
4692;SDS011;11710;48.024;16.296;2022-08-01T10:29:36;7.40;;;5.90;;
4692;SDS011;11710;48.024;16.296;2022-08-01T10:32:07;5.80;;;5.20;;
4692;SDS011;11710;48.024;16.296;2022-08-01T10:34:36;6.10;;;5.60;;
4692;SDS011;11710;48.024;16.296;2022-08-01T10:37:03;6.33;;;5.83;;
4692;SDS011;11710;48.024;16.296;2022-08-01T10:39:33;7.03;;;6.33;;
4692;SDS011;11710;48.024;16.296;2022-08-01T10:42:00;6.20;;;5.70;;
4692;SDS011;11710;48.024;16.296;2022-08-01T10:44:28;5.90;;;5.30;;
4692;SDS011;11710;48.024;16.296;2022-08-01T10:46:59;6.47;;;5.27;;
4692;SDS011;11710;48.024;16.296;2022-08-01T10:49:30;5.60;;;5.20;;
4692;SDS011;11710;48.024;16.296;2022-08-01T10:52:02;6.17;;;5.67;;
4692;SDS011;11710;48.024;16.296;2022-08-01T10:54:30;5.70;;;5.30;;
4692;SDS011;11710;48.024;16.296;2022-08-01T10:57:06;5.73;;;5.23;;
4692;SDS011;11710;48.024;16.296;2022-08-01T10:59:35;5.90;;;5.00;;
4692;SDS011;11710;48.024;16.296;2022-08-01T11:02:13;5.70;;;5.20;;
4692;SDS011;11710;48.024;16.296;2022-08-01T11:04:54;6.17;;;5.67;;
4692;SDS011;11710;48.024;16.296;2022-08-01T11:07:23;6.07;;;5.47;;
4692;SDS011;11710;48.024;16.296;2022-08-01T11:10:09;6.13;;;5.53;;
4692;SDS011;11710;48.024;16.296;2022-08-01T11:12:43;7.87;;;5.70;;
4692;SDS011;11710;48.024;16.296;2022-08-01T11:15:17;5.87;;;5.33;;
4692;SDS011;11710;48.024;16.296;2022-08-01T11:17:52;6.27;;;5.70;;
4692;SDS011;11710;48.024;16.296;2022-08-01T11:20:21;5.80;;;5.33;;
4692;SDS011;11710;48.024;16.296;2022-08-01T11:28:35;5.60;;;5.07;;
4692;SDS011;11710;48.024;16.296;2022-08-01T11:33:55;5.83;;;5.23;;
4692;SDS011;11710;48.024;16.296;2022-08-01T11:36:22;7.30;;;5.50;;
4692;SDS011;11710;48.024;16.296;2022-08-01T11:38:50;6.03;;;5.53;;
4692;SDS011;11710;48.024;16.296;2022-08-01T11:41:39;5.73;;;5.23;;
4692;SDS011;11710;48.024;16.296;2022-08-01T11:44:08;5.90;;;5.50;;
4692;SDS011;11710;48.024;16.296;2022-08-01T11:46:51;5.50;;;5.00;;
4692;SDS011;11710;48.024;16.296;2022-08-01T11:49:27;5.50;;;5.07;;
4692;SDS011;11710;48.024;16.296;2022-08-01T11:51:58;6.00;;;5.50;;
4692;SDS011;11710;48.024;16.296;2022-08-01T11:54:30;5.83;;;5.30;;
4692;SDS011;11710;48.024;16.296;2022-08-01T11:56:59;5.77;;;5.23;;
4692;SDS011;11710;48.024;16.296;2022-08-01T11:59:34;5.80;;;5.30;;
4692;SDS011;11710;48.024;16.296;2022-08-01T12:02:02;7.33;;;5.57;;
4692;SDS011;11710;48.024;16.296;2022-08-01T12:04:43;6.10;;;5.50;;
4692;SDS011;11710;48.024;16.296;2022-08-01T12:07:12;5.80;;;5.40;;
4692;SDS011;11710;48.024;16.296;2022-08-01T12:09:40;6.43;;;5.27;;
4692;SDS011;11710;48.024;16.296;2022-08-01T12:12:08;5.60;;;5.10;;
4692;SDS011;11710;48.024;16.296;2022-08-01T12:14:35;6.33;;;5.70;;
4692;SDS011;11710;48.024;16.296;2022-08-01T12:17:02;8.83;;;5.70;;
4692;SDS011;11710;48.024;16.296;2022-08-01T12:19:30;6.63;;;5.93;;
4692;SDS011;11710;48.024;16.296;2022-08-01T12:22:06;8.30;;;5.83;;
4692;SDS011;11710;48.024;16.296;2022-08-01T12:24:35;5.07;;;4.67;;
4692;SDS011;11710;48.024;16.296;2022-08-01T12:27:03;5.43;;;4.97;;
4692;SDS011;11710;48.024;16.296;2022-08-01T12:29:33;5.47;;;5.07;;
4692;SDS011;11710;48.024;16.296;2022-08-01T12:32:01;4.33;;;3.50;;
4692;SDS011;11710;48.024;16.296;2022-08-01T12:34:28;5.40;;;4.20;;
4692;SDS011;11710;48.024;16.296;2022-08-01T12:36:56;3.83;;;3.53;;
4692;SDS011;11710;48.024;16.296;2022-08-01T12:39:29;3.80;;;3.50;;
4692;SDS011;11710;48.024;16.296;2022-08-01T12:41:59;6.17;;;3.50;;
4692;SDS011;11710;48.024;16.296;2022-08-01T12:44:27;3.10;;;2.83;;
4692;SDS011;11710;48.024;16.296;2022-08-01T12:46:57;3.20;;;3.00;;
4692;SDS011;11710;48.024;16.296;2022-08-01T12:49:25;3.43;;;3.13;;
4692;SDS011;11710;48.024;16.296;2022-08-01T12:51:53;3.50;;;3.20;;
4692;SDS011;11710;48.024;16.296;2022-08-01T12:54:21;3.73;;;3.43;;
4692;SDS011;11710;48.024;16.296;2022-08-01T12:56:50;4.03;;;3.73;;
4692;SDS011;11710;48.024;16.296;2022-08-01T12:59:22;5.77;;;3.93;;
4692;SDS011;11710;48.024;16.296;2022-08-01T13:01:50;4.60;;;3.80;;
4692;SDS011;11710;48.024;16.296;2022-08-01T13:04:19;4.93;;;3.80;;
4692;SDS011;11710;48.024;16.296;2022-08-01T13:06:47;5.00;;;4.30;;
4692;SDS011;11710;48.024;16.296;2022-08-01T13:09:14;4.93;;;4.43;;
4692;SDS011;11710;48.024;16.296;2022-08-01T13:11:41;4.60;;;4.20;;
4692;SDS011;11710;48.024;16.296;2022-08-01T13:14:10;5.00;;;4.53;;
4692;SDS011;11710;48.024;16.296;2022-08-01T13:16:52;5.23;;;4.83;;
4692;SDS011;11710;48.024;16.296;2022-08-01T13:19:21;5.40;;;5.00;;
4692;SDS011;11710;48.024;16.296;2022-08-01T13:22:08;5.50;;;5.00;;
4692;SDS011;11710;48.024;16.296;2022-08-01T13:24:35;5.40;;;5.00;;
4692;SDS011;11710;48.024;16.296;2022-08-01T13:27:03;5.47;;;4.53;;
4692;SDS011;11710;48.024;16.296;2022-08-01T13:29:32;5.63;;;5.23;;
4692;SDS011;11710;48.024;16.296;2022-08-01T13:32:11;5.23;;;4.60;;
4692;SDS011;11710;48.024;16.296;2022-08-01T13:34:40;4.10;;;3.80;;
4692;SDS011;11710;48.024;16.296;2022-08-01T13:37:07;3.20;;;3.00;;
4692;SDS011;11710;48.024;16.296;2022-08-01T13:39:34;3.50;;;3.20;;
4692;SDS011;11710;48.024;16.296;2022-08-01T13:42:09;4.27;;;3.10;;
4692;SDS011;11710;48.024;16.296;2022-08-01T13:44:36;3.30;;;3.00;;
4692;SDS011;11710;48.024;16.296;2022-08-01T13:47:04;3.20;;;2.90;;
4692;SDS011;11710;48.024;16.296;2022-08-01T13:49:31;3.37;;;3.17;;
4692;SDS011;11710;48.024;16.296;2022-08-01T13:52:00;3.67;;;3.20;;
4692;SDS011;11710;48.024;16.296;2022-08-01T13:54:27;4.30;;;3.90;;
4692;SDS011;11710;48.024;16.296;2022-08-01T13:56:54;5.73;;;3.73;;
4692;SDS011;11710;48.024;16.296;2022-08-01T13:59:21;4.00;;;3.70;;
4692;SDS011;11710;48.024;16.296;2022-08-01T14:01:48;3.90;;;3.60;;
4692;SDS011;11710;48.024;16.296;2022-08-01T14:04:15;4.93;;;3.37;;
4692;SDS011;11710;48.024;16.296;2022-08-01T14:06:42;4.27;;;3.43;;
4692;SDS011;11710;48.024;16.296;2022-08-01T14:09:10;3.93;;;3.37;;
4692;SDS011;11710;48.024;16.296;2022-08-01T14:11:37;3.70;;;3.40;;
4692;SDS011;11710;48.024;16.296;2022-08-01T14:14:04;4.80;;;3.87;;
4692;SDS011;11710;48.024;16.296;2022-08-01T14:16:31;3.80;;;3.50;;
4692;SDS011;11710;48.024;16.296;2022-08-01T14:18:58;3.83;;;3.53;;
4692;SDS011;11710;48.024;16.296;2022-08-01T14:21:25;4.30;;;3.73;;
4692;SDS011;11710;48.024;16.296;2022-08-01T14:23:52;4.20;;;3.80;;
4692;SDS011;11710;48.024;16.296;2022-08-01T14:26:20;3.40;;;3.20;;
4692;SDS011;11710;48.024;16.296;2022-08-01T14:28:47;4.03;;;3.60;;
4692;SDS011;11710;48.024;16.296;2022-08-01T14:31:14;4.03;;;3.70;;
4692;SDS011;11710;48.024;16.296;2022-08-01T14:33:41;3.93;;;3.50;;
4692;SDS011;11710;48.024;16.296;2022-08-01T14:36:08;3.73;;;3.43;;
4692;SDS011;11710;48.024;16.296;2022-08-01T14:38:35;4.60;;;4.23;;
4692;SDS011;11710;48.024;16.296;2022-08-01T14:41:02;4.17;;;3.87;;
4692;SDS011;11710;48.024;16.296;2022-08-01T14:43:30;4.00;;;3.70;;
4692;SDS011;11710;48.024;16.296;2022-08-01T14:45:57;4.10;;;3.80;;
4692;SDS011;11710;48.024;16.296;2022-08-01T14:48:24;3.90;;;3.60;;
4692;SDS011;11710;48.024;16.296;2022-08-01T14:50:51;8.70;;;3.90;;
4692;SDS011;11710;48.024;16.296;2022-08-01T14:53:18;4.37;;;3.97;;
4692;SDS011;11710;48.024;16.296;2022-08-01T14:55:45;4.17;;;3.80;;
4692;SDS011;11710;48.024;16.296;2022-08-01T14:58:12;4.00;;;3.70;;
4692;SDS011;11710;48.024;16.296;2022-08-01T15:00:41;4.23;;;3.83;;
4692;SDS011;11710;48.024;16.296;2022-08-01T15:03:08;4.20;;;3.90;;
4692;SDS011;11710;48.024;16.296;2022-08-01T15:05:34;4.03;;;3.67;;
4692;SDS011;11710;48.024;16.296;2022-08-01T15:08:02;4.60;;;4.20;;